Time;durP1;ratioP1;P1;durP2;ratioP2;P2;SDS_P1;SDS_P2;PMS_P1;PMS_P2;Temp;Humidity;BMP_temperature;BMP_pressure;BME280_temperature;BME280_humidity;BME280_pressure;Samples;Min_cycle;Max_cycle;Signal;HPM_P1;HPM_P2
2023/02/27 00:01:18;;;;;;;;;;;;;;;;;;5071026;28;2058;-39
2023/02/27 00:03:45;;;;;;;;;;;;;;;;;;5053358;28;2164;-39
2023/02/27 00:06:12;;;;;;;;;;;;;;;;;;5086725;28;1963;-39
2023/02/27 00:08:39;;;;;;;;;;;;;;;;;;5091523;28;2048;-38
2023/02/27 00:11:06;;;;;;;;;;;;;;;;;;5091125;28;1655;-39
2023/02/27 00:13:34;;;;;;;;;;;;;;;;;;5091024;28;2309;-40
2023/02/27 00:16:03;;;;;;;;;;;;;;;;;;5091490;28;1569;-39
2023/02/27 00:18:30;;;;;;;;;;;;;;;;;;5091282;28;1413;-39
2023/02/27 00:20:58;;;;;;;;;;;;;;;;;;5091220;28;1890;-39
2023/02/27 00:23:26;;;;;;;;;;;;;;;;;;5091136;28;1822;-39
2023/02/27 00:25:54;;;;;;;;;;;;;;;;;;5090852;28;1982;-39
2023/02/27 00:28:21;;;;;;;;;;;;;;;;;;5091005;28;1793;-40
2023/02/27 00:30:48;;;;;;;;;;;;;;;;;;5089810;28;2124;-39
2023/02/27 00:33:16;;;;;;;;;;;;;;;;;;5071043;28;1924;-40
2023/02/27 00:35:43;;;;;;;;;;;;;;;;;;5070655;28;1914;-39
2023/02/27 00:38:10;;;;;;;;;;;;;;;;;;5071006;28;1962;-40
2023/02/27 00:40:37;;;;;;;;;;;;;;;;;;5071141;28;1486;-39
2023/02/27 00:43:05;;;;;;;;;;;;;;;;;;5070808;28;1852;-44
2023/02/27 00:45:32;;;;;;;;;;;;;;;;;;5070542;28;1910;-39
2023/02/27 00:47:59;;;;;;;;;;;;;;;;;;5070916;28;2116;-39
2023/02/27 00:50:26;;;;;;;;;;;;;;;;;;5052551;28;1846;-39
2023/02/27 00:52:54;;;;;;;;;;;;;;;;;;5070706;28;1552;-37
2023/02/27 00:55:21;;;;;;;;;;;;;;;;;;5073898;28;1545;-39
2023/02/27 00:57:48;;;;;;;;;;;;;;;;;;5074698;28;1461;-40
2023/02/27 01:00:16;;;;;;;;;;;;;;;;;;5056595;28;1844;-39
2023/02/27 01:02:43;;;;;;;;;;;;;;;;;;5056303;28;1662;-39
2023/02/27 01:05:12;;;;;;;;;;;;;;;;;;5081935;28;1910;-40
2023/02/27 01:07:39;;;;;;;;;;;;;;;;;;5076586;28;2008;-39
2023/02/27 01:10:07;;;;;;;;;;;;;;;;;;5094725;28;1929;-39
2023/02/27 01:12:37;;;;;;;;;;;;;;;;;;5077240;28;1929;-39
2023/02/27 01:15:05;;;;;;;;;;;;;;;;;;5094608;28;1618;-39
2023/02/27 01:17:32;;;;;;;;;;;;;;;;;;5094382;28;2054;-39
2023/02/27 01:19:59;;;;;;;;;;;;;;;;;;5094450;28;1860;-39
2023/02/27 01:22:27;;;;;;;;;;;;;;;;;;5075923;28;1913;-39
2023/02/27 01:24:54;;;;;;;;;;;;;;;;;;5094527;28;1995;-40
2023/02/27 01:27:21;;;;;;;;;;;;;;;;;;5076023;28;2418;-39
2023/02/27 01:29:48;;;;;;;;;;;;;;;;;;5094278;28;1664;-39
2023/02/27 01:32:15;;;;;;;;;;;;;;;;;;5064390;28;2129;-39
2023/02/27 01:34:43;;;;;;;;;;;;;;;;;;5073383;28;1956;-39
2023/02/27 01:37:10;;;;;;;;;;;;;;;;;;5055937;28;1924;-39
2023/02/27 01:39:37;;;;;;;;;;;;;;;;;;5055836;28;1761;-39
2023/02/27 01:42:09;;;;;;;;;;;;;;;;;;5073792;28;1809;-40
2023/02/27 01:44:58;;;;;;;;;;;;;;;;;;5073887;28;1755;-40
2023/02/27 01:47:25;;;;;;;;;;;;;;;;;;5073630;28;2210;-39
2023/02/27 01:49:53;;;;;;;;;;;;;;;;;;5055461;28;1652;-39
2023/02/27 01:52:20;;;;;;;;;;;;;;;;;;5073578;28;2123;-39
2023/02/27 01:54:47;;;;;;;;;;;;;;;;;;5073323;28;1930;-39
2023/02/27 01:57:15;;;;;;;;;;;;;;;;;;5072183;28;1843;-44
2023/02/27 01:59:42;;;;;;;;;;;;;;;;;;5055703;28;1505;-39
2023/02/27 02:02:13;;;;;;;;;;;;;;;;;;5073301;28;1955;-38
2023/02/27 02:04:41;;;;;;;;;;;;;;;;;;5073013;28;1479;-39
2023/02/27 02:07:10;;;;;;;;;;;;;;;;;;5073170;28;2234;-40
2023/02/27 02:09:42;;;;;;;;;;;;;;;;;;5073459;28;1676;-40
2023/02/27 02:12:12;;;;;;;;;;;;;;;;;;5073608;28;2091;-39
2023/02/27 02:14:42;;;;;;;;;;;;;;;;;;5055257;28;2017;-39
2023/02/27 02:17:12;;;;;;;;;;;;;;;;;;5073676;28;1362;-40
2023/02/27 02:19:51;;;;;;;;;;;;;;;;;;5073109;28;1991;-40
2023/02/27 02:22:27;;;;;;;;;;;;;;;;;;5073112;28;1994;-39
2023/02/27 02:25:13;;;;;;;;;;;;;;;;;;5054797;28;1447;-39
2023/02/27 02:27:59;;;;;;;;;;;;;;;;;;5072562;28;1968;-39
2023/02/27 02:30:32;;;;;;;;;;;;;;;;;;5072925;28;1986;-39
2023/02/27 02:33:11;;;;;;;;;;;;;;;;;;5090358;28;1971;-40
2023/02/27 02:35:57;;;;;;;;;;;;;;;;;;5093079;28;1400;-39
2023/02/27 02:38:31;;;;;;;;;;;;;;;;;;5074755;28;1614;-39
2023/02/27 02:40:58;;;;;;;;;;;;;;;;;;5074496;28;2281;-39
2023/02/27 02:43:25;;;;;;;;;;;;;;;;;;5092813;28;1664;-40
2023/02/27 02:45:58;;;;;;;;;;;;;;;;;;5092595;28;1902;-39
2023/02/27 02:48:29;;;;;;;;;;;;;;;;;;5074567;28;1810;-39
2023/02/27 02:51:19;;;;;;;;;;;;;;;;;;5092652;28;1766;-39
2023/02/27 02:54:01;;;;;;;;;;;;;;;;;;5092824;28;2016;-40
2023/02/27 02:56:35;;;;;;;;;;;;;;;;;;5074564;28;2491;-40
2023/02/27 02:59:25;;;;;;;;;;;;;;;;;;5092611;28;1677;-40
2023/02/27 03:01:58;;;;;;;;;;;;;;;;;;5074251;28;1669;-40
2023/02/27 03:04:32;;;;;;;;;;;;;;;;;;5090994;28;2289;-39
2023/02/27 03:07:10;;;;;;;;;;;;;;;;;;5053861;28;1974;-40
2023/02/27 03:09:41;;;;;;;;;;;;;;;;;;5072177;28;1726;-39
2023/02/27 03:12:11;;;;;;;;;;;;;;;;;;5072301;28;2180;-40
2023/02/27 03:14:59;;;;;;;;;;;;;;;;;;5054162;28;2294;-40
2023/02/27 03:17:58;;;;;;;;;;;;;;;;;;5061294;28;2027;-40
2023/02/27 03:20:28;;;;;;;;;;;;;;;;;;5021567;28;1735;-39
2023/02/27 03:22:58;;;;;;;;;;;;;;;;;;5071665;28;2175;-40
2023/02/27 03:25:27;;;;;;;;;;;;;;;;;;5067396;28;1565;-40
2023/02/27 03:27:58;;;;;;;;;;;;;;;;;;5071813;28;2007;-40
2023/02/27 03:30:28;;;;;;;;;;;;;;;;;;5053746;28;1459;-40
2023/02/27 03:32:59;;;;;;;;;;;;;;;;;;5071610;28;1783;-39
2023/02/27 03:35:40;;;;;;;;;;;;;;;;;;5037200;28;1961;-39
2023/02/27 03:38:17;;;;;;;;;;;;;;;;;;5071609;28;1798;-40
2023/02/27 03:40:44;;;;;;;;;;;;;;;;;;5071405;28;1977;-39
2023/02/27 03:43:23;;;;;;;;;;;;;;;;;;5053308;28;2047;-39
2023/02/27 03:46:00;;;;;;;;;;;;;;;;;;5053424;28;2235;-43
2023/02/27 03:48:28;;;;;;;;;;;;;;;;;;5071345;28;1913;-39
2023/02/27 03:50:55;;;;;;;;;;;;;;;;;;5071272;28;2003;-40
2023/02/27 03:53:25;;;;;;;;;;;;;;;;;;5071163;28;2140;-39
2023/02/27 03:55:53;;;;;;;;;;;;;;;;;;5070662;28;2197;-39
2023/02/27 03:58:20;;;;;;;;;;;;;;;;;;5036877;28;2189;-39
2023/02/27 04:00:48;;;;;;;;;;;;;;;;;;5053026;28;2027;-39
2023/02/27 04:03:16;;;;;;;;;;;;;;;;;;5053220;28;2196;-40
2023/02/27 04:05:43;;;;;;;;;;;;;;;;;;5064618;28;2001;-40
2023/02/27 04:08:20;;;;;;;;;;;;;;;;;;5091565;28;1920;-40
2023/02/27 04:10:50;;;;;;;;;;;;;;;;;;5091282;28;1732;-39
2023/02/27 04:13:36;;;;;;;;;;;;;;;;;;5091251;28;2460;-40
2023/02/27 04:16:06;;;;;;;;;;;;;;;;;;5091198;28;2023;-40
2023/02/27 04:18:33;;;;;;;;;;;;;;;;;;5090934;28;1917;-38
2023/02/27 04:21:03;;;;;;;;;;;;;;;;;;5079588;28;1776;-39
2023/02/27 04:23:36;;;;;;;;;;;;;;;;;;5070745;28;1977;-40
2023/02/27 04:26:10;;;;;;;;;;;;;;;;;;5071040;28;2012;-39
2023/02/27 04:28:43;;;;;;;;;;;;;;;;;;5070750;28;1912;-39
2023/02/27 04:31:17;;;;;;;;;;;;;;;;;;5073608;28;2180;-40
2023/02/27 04:34:00;;;;;;;;;;;;;;;;;;5091006;28;1999;-40
2023/02/27 04:36:33;;;;;;;;;;;;;;;;;;5072918;28;2142;-40
2023/02/27 04:39:16;;;;;;;;;;;;;;;;;;5091108;28;2285;-39
2023/02/27 04:41:47;;;;;;;;;;;;;;;;;;5090971;28;1871;-40
2023/02/27 04:44:15;;;;;;;;;;;;;;;;;;5091117;28;2152;-40
2023/02/27 04:46:43;;;;;;;;;;;;;;;;;;5090955;28;1912;-40
2023/02/27 04:49:17;;;;;;;;;;;;;;;;;;5091177;28;1962;-38
2023/02/27 04:52:04;;;;;;;;;;;;;;;;;;5090754;28;1674;-40
2023/02/27 04:54:41;;;;;;;;;;;;;;;;;;5090694;28;1993;-39
2023/02/27 04:57:11;;;;;;;;;;;;;;;;;;5090802;28;1517;-42
2023/02/27 04:59:40;;;;;;;;;;;;;;;;;;5090972;28;2036;-41
2023/02/27 05:02:13;;;;;;;;;;;;;;;;;;5090889;28;1659;-40
2023/02/27 05:04:42;;;;;;;;;;;;;;;;;;5088086;28;1540;-39
2023/02/27 05:07:12;;;;;;;;;;;;;;;;;;5052573;28;1968;-40
2023/02/27 05:09:45;;;;;;;;;;;;;;;;;;5070444;28;1651;-47
2023/02/27 05:12:21;;;;;;;;;;;;;;;;;;5070733;28;1562;-41
2023/02/27 05:14:51;;;;;;;;;;;;;;;;;;5070400;28;2054;-40
2023/02/27 05:17:24;;;;;;;;;;;;;;;;;;5070538;28;1516;-42
2023/02/27 05:19:51;;;;;;;;;;;;;;;;;;5070331;28;1971;-42
2023/02/27 05:22:18;;;;;;;;;;;;;;;;;;5070493;28;2077;-40
2023/02/27 05:24:53;;;;;;;;;;;;;;;;;;5070328;28;2045;-40
2023/02/27 05:27:26;;;;;;;;;;;;;;;;;;5070160;28;1911;-41
2023/02/27 05:30:16;;;;;;;;;;;;;;;;;;5070375;28;1796;-40
2023/02/27 05:32:46;;;;;;;;;;;;;;;;;;5077638;28;1846;-40
2023/02/27 05:35:14;;;;;;;;;;;;;;;;;;5090418;28;1646;-42
2023/02/27 05:38:01;;;;;;;;;;;;;;;;;;5090769;28;1337;-40
2023/02/27 05:40:36;;;;;;;;;;;;;;;;;;5092132;28;1437;-42
2023/02/27 05:43:30;;;;;;;;;;;;;;;;;;5093950;28;1913;-40
2023/02/27 05:46:00;;;;;;;;;;;;;;;;;;5091673;28;1420;-40
2023/02/27 05:48:30;;;;;;;;;;;;;;;;;;5093710;28;2095;-40
2023/02/27 05:50:58;;;;;;;;;;;;;;;;;;5093794;28;1939;-41
2023/02/27 05:53:29;;;;;;;;;;;;;;;;;;5093917;28;1982;-41
2023/02/27 05:55:58;;;;;;;;;;;;;;;;;;5094097;28;1575;-40
2023/02/27 05:58:31;;;;;;;;;;;;;;;;;;5093744;28;2104;-40
2023/02/27 06:00:59;;;;;;;;;;;;;;;;;;5093833;28;2015;-41
2023/02/27 06:03:27;;;;;;;;;;;;;;;;;;5092161;28;3653;-42
2023/02/27 06:05:56;;;;;;;;;;;;;;;;;;5055327;28;10474;-40
2023/02/27 06:08:23;;;;;;;;;;;;;;;;;;5073563;28;1987;-41
2023/02/27 06:10:51;;;;;;;;;;;;;;;;;;5073166;28;1832;-40
2023/02/27 06:13:18;;;;;;;;;;;;;;;;;;5083180;28;2005;-40
2023/02/27 06:15:45;;;;;;;;;;;;;;;;;;5093562;28;2137;-40
2023/02/27 06:18:13;;;;;;;;;;;;;;;;;;5093610;28;1820;-40
2023/02/27 06:20:41;;;;;;;;;;;;;;;;;;5093882;28;1986;-40
2023/02/27 06:23:09;;;;;;;;;;;;;;;;;;5093431;28;2120;-40
2023/02/27 06:25:36;;;;;;;;;;;;;;;;;;5093466;28;1913;-40
2023/02/27 06:28:03;;;;;;;;;;;;;;;;;;5093051;28;2038;-40
2023/02/27 06:30:30;;;;;;;;;;;;;;;;;;5093363;28;1965;-40
2023/02/27 06:32:58;;;;;;;;;;;;;;;;;;5092976;28;1682;-40
2023/02/27 06:35:27;;;;;;;;;;;;;;;;;;5093042;28;1962;-40
2023/02/27 06:37:55;;;;;;;;;;;;;;;;;;5093241;28;1497;-41
2023/02/27 06:40:23;;;;;;;;;;;;;;;;;;5093108;28;2136;-41
2023/02/27 06:42:53;;;;;;;;;;;;;;;;;;5074588;28;1858;-41
2023/02/27 06:45:20;;;;;;;;;;;;;;;;;;5072532;28;1976;-40
2023/02/27 06:47:47;;;;;;;;;;;;;;;;;;5072622;28;1969;-40
2023/02/27 06:50:15;;;;;;;;;;;;;;;;;;5072452;28;1574;-40
2023/02/27 06:52:42;;;;;;;;;;;;;;;;;;5070455;28;1616;-41
2023/02/27 06:55:09;;;;;;;;;;;;;;;;;;5072374;28;1619;-40
2023/02/27 06:57:38;;;;;;;;;;;;;;;;;;5072641;28;2254;-39
2023/02/27 07:00:06;;;;;;;;;;;;;;;;;;5072466;28;2143;-40
2023/02/27 07:02:33;;;;;;;;;;;;;;;;;;5072419;28;2196;-41
2023/02/27 07:05:00;;;;;;;;;;;;;;;;;;5077757;28;2101;-41
2023/02/27 07:07:33;;;;;;;;;;;;;;;;;;5091172;28;1908;-39
2023/02/27 07:10:05;;;;;;;;;;;;;;;;;;5078456;28;1955;-41
2023/02/27 07:12:32;;;;;;;;;;;;;;;;;;5072152;28;1939;-40
2023/02/27 07:15:00;;;;;;;;;;;;;;;;;;5072160;28;1920;-40
2023/02/27 07:17:27;;;;;;;;;;;;;;;;;;5072250;28;2042;-40
2023/02/27 07:19:54;;;;;;;;;;;;;;;;;;5072292;28;2024;-41
2023/02/27 07:22:21;;;;;;;;;;;;;;;;;;5071353;28;1945;-41
2023/02/27 07:24:49;;;;;;;;;;;;;;;;;;5082829;28;1226;-40
2023/02/27 07:27:16;;;;;;;;;;;;;;;;;;5091318;28;1975;-40
2023/02/27 07:29:43;;;;;;;;;;;;;;;;;;5091130;28;1755;-40
2023/02/27 07:32:10;;;;;;;;;;;;;;;;;;5080597;28;1940;-40
2023/02/27 07:34:37;;;;;;;;;;;;;;;;;;5070733;28;2135;-40
2023/02/27 07:37:04;;;;;;;;;;;;;;;;;;5070895;28;1815;-40
2023/02/27 07:39:32;;;;;;;;;;;;;;;;;;5070481;28;1452;-43
2023/02/27 07:41:59;;;;;;;;;;;;;;;;;;5070880;28;2008;-41
2023/02/27 07:44:26;;;;;;;;;;;;;;;;;;5070760;28;1485;-41
2023/02/27 07:46:53;;;;;;;;;;;;;;;;;;5070517;28;1872;-40
2023/02/27 07:49:20;;;;;;;;;;;;;;;;;;5070744;28;1918;-42
2023/02/27 07:51:47;;;;;;;;;;;;;;;;;;5070513;28;1962;-40
2023/02/27 07:54:15;;;;;;;;;;;;;;;;;;5070423;28;2262;-40
2023/02/27 07:56:42;;;;;;;;;;;;;;;;;;5070701;28;1409;-41
2023/02/27 07:59:09;;;;;;;;;;;;;;;;;;5070578;28;1861;-41
2023/02/27 08:01:36;;;;;;;;;;;;;;;;;;5070608;28;1839;-41
2023/02/27 08:04:03;;;;;;;;;;;;;;;;;;5068726;28;1706;-41
2023/02/27 08:06:30;;;;;;;;;;;;;;;;;;5072656;28;2019;-41
2023/02/27 08:08:58;;;;;;;;;;;;;;;;;;5070202;28;1914;-41
2023/02/27 08:11:25;;;;;;;;;;;;;;;;;;5070146;28;1756;-41
2023/02/27 08:13:52;;;;;;;;;;;;;;;;;;5070243;28;1718;-40
2023/02/27 08:16:29;;;;;;;;;;;;;;;;;;5070078;28;1628;-40
2023/02/27 08:18:57;;;;;;;;;;;;;;;;;;5070192;28;1880;-40
2023/02/27 08:21:25;;;;;;;;;;;;;;;;;;5070302;28;2081;-40
2023/02/27 08:23:53;;;;;;;;;;;;;;;;;;5070253;28;1792;-40
2023/02/27 08:26:20;;;;;;;;;;;;;;;;;;5070272;28;1789;-41
2023/02/27 08:28:47;;;;;;;;;;;;;;;;;;5069800;28;2059;-41
2023/02/27 08:31:14;;;;;;;;;;;;;;;;;;5073187;28;1674;-40
2023/02/27 08:33:42;;;;;;;;;;;;;;;;;;5090394;28;2116;-48
2023/02/27 08:36:09;;;;;;;;;;;;;;;;;;5090072;28;2073;-41
2023/02/27 08:38:37;;;;;;;;;;;;;;;;;;5090364;28;1459;-40
2023/02/27 08:41:04;;;;;;;;;;;;;;;;;;5089386;28;2113;-41
2023/02/27 08:43:34;;;;;;;;;;;;;;;;;;5089395;28;1887;-48
2023/02/27 08:46:01;;;;;;;;;;;;;;;;;;5089618;28;1860;-41
2023/02/27 08:48:28;;;;;;;;;;;;;;;;;;5090086;28;1923;-40
2023/02/27 08:50:55;;;;;;;;;;;;;;;;;;5090213;28;1319;-41
2023/02/27 08:53:23;;;;;;;;;;;;;;;;;;5090938;28;1363;-41
2023/02/27 08:55:50;;;;;;;;;;;;;;;;;;5089949;28;1987;-41
2023/02/27 08:58:18;;;;;;;;;;;;;;;;;;5091135;28;1690;-40
2023/02/27 09:00:45;;;;;;;;;;;;;;;;;;5090632;28;2156;-41
2023/02/27 09:03:13;;;;;;;;;;;;;;;;;;5071577;28;2034;-41
2023/02/27 09:05:40;;;;;;;;;;;;;;;;;;5082083;28;1980;-40
2023/02/27 09:08:07;;;;;;;;;;;;;;;;;;5077631;28;2011;-43
2023/02/27 09:10:35;;;;;;;;;;;;;;;;;;5070765;28;1990;-41
2023/02/27 09:13:02;;;;;;;;;;;;;;;;;;5070678;28;1857;-41
2023/02/27 09:15:31;;;;;;;;;;;;;;;;;;5072313;28;2174;-46
2023/02/27 09:18:02;;;;;;;;;;;;;;;;;;5074249;28;2040;-47
2023/02/27 09:20:30;;;;;;;;;;;;;;;;;;5074274;28;1929;-41
2023/02/27 09:22:58;;;;;;;;;;;;;;;;;;5073335;28;1787;-40
2023/02/27 09:25:25;;;;;;;;;;;;;;;;;;5073161;28;1595;-47
2023/02/27 09:27:52;;;;;;;;;;;;;;;;;;5072882;28;1924;-41
2023/02/27 09:30:19;;;;;;;;;;;;;;;;;;5073186;28;2010;-45
2023/02/27 09:32:47;;;;;;;;;;;;;;;;;;5088940;28;1723;-49
2023/02/27 09:35:14;;;;;;;;;;;;;;;;;;5093419;28;1839;-40
2023/02/27 09:37:42;;;;;;;;;;;;;;;;;;5093728;28;2043;-43
2023/02/27 09:40:29;;;;;;;;;;;;;;;;;;5093503;28;2010;-48
2023/02/27 09:43:01;;;;;;;;;;;;;;;;;;5093262;28;2014;-41
2023/02/27 09:45:37;;;;;;;;;;;;;;;;;;5093107;28;1743;-40
2023/02/27 09:48:11;;;;;;;;;;;;;;;;;;5093071;28;1981;-41
2023/02/27 09:50:42;;;;;;;;;;;;;;;;;;5093008;28;1770;-40
2023/02/27 09:53:12;;;;;;;;;;;;;;;;;;5093278;28;1399;-40
2023/02/27 09:55:41;;;;;;;;;;;;;;;;;;5093279;28;1824;-41
2023/02/27 09:58:23;;;;;;;;;;;;;;;;;;5084581;28;1898;-42
2023/02/27 10:01:01;;;;;;;;;;;;;;;;;;5072798;28;1908;-41
2023/02/27 10:03:42;;;;;;;;;;;;;;;;;;5072488;28;1903;-40
2023/02/27 10:06:15;;;;;;;;;;;;;;;;;;5087823;28;1582;-41
2023/02/27 10:08:45;;;;;;;;;;;;;;;;;;5092851;28;1890;-40
2023/02/27 10:11:14;;;;;;;;;;;;;;;;;;5093099;28;1897;-40
2023/02/27 10:13:49;;;;;;;;;;;;;;;;;;5092535;28;1945;-40
2023/02/27 10:16:18;;;;;;;;;;;;;;;;;;5092382;28;1779;-39
2023/02/27 10:18:54;;;;;;;;;;;;;;;;;;5092625;28;1562;-40
2023/02/27 10:21:24;;;;;;;;;;;;;;;;;;5092423;28;1888;-41
2023/02/27 10:24:03;;;;;;;;;;;;;;;;;;5090317;28;1708;-40
2023/02/27 10:26:36;;;;;;;;;;;;;;;;;;5071817;28;2292;-41
2023/02/27 10:29:18;;;;;;;;;;;;;;;;;;5071720;28;2081;-41
2023/02/27 10:31:46;;;;;;;;;;;;;;;;;;5079263;28;1938;-41
2023/02/27 10:34:15;;;;;;;;;;;;;;;;;;5092226;28;1830;-41
2023/02/27 10:36:44;;;;;;;;;;;;;;;;;;5091069;28;2046;-41
2023/02/27 10:39:13;;;;;;;;;;;;;;;;;;5092213;28;2000;-41
2023/02/27 10:41:41;;;;;;;;;;;;;;;;;;5092253;28;2099;-41
2023/02/27 10:44:09;;;;;;;;;;;;;;;;;;5092249;28;2224;-42
2023/02/27 10:46:38;;;;;;;;;;;;;;;;;;5091966;28;1990;-42
2023/02/27 10:49:12;;;;;;;;;;;;;;;;;;5091615;28;1986;-42
2023/02/27 10:51:39;;;;;;;;;;;;;;;;;;5091904;28;1720;-40
2023/02/27 10:54:15;;;;;;;;;;;;;;;;;;5085569;28;1853;-41
2023/02/27 10:56:56;;;;;;;;;;;;;;;;;;5071823;28;1577;-40
2023/02/27 10:59:27;;;;;;;;;;;;;;;;;;5071216;28;1855;-41
2023/02/27 11:01:56;;;;;;;;;;;;;;;;;;5071401;28;1422;-40
2023/02/27 11:04:33;;;;;;;;;;;;;;;;;;5071857;28;2037;-41
2023/02/27 11:07:03;;;;;;;;;;;;;;;;;;5091605;28;2063;-41
2023/02/27 11:09:32;;;;;;;;;;;;;;;;;;5091388;28;2024;-41
2023/02/27 11:12:17;;;;;;;;;;;;;;;;;;5091479;28;1541;-41
2023/02/27 11:14:49;;;;;;;;;;;;;;;;;;5091821;28;2094;-40
2023/02/27 11:17:32;;;;;;;;;;;;;;;;;;5091461;28;2443;-41
2023/02/27 11:20:04;;;;;;;;;;;;;;;;;;5091488;28;1721;-41
2023/02/27 11:22:32;;;;;;;;;;;;;;;;;;5091690;28;1945;-40
2023/02/27 11:25:26;;;;;;;;;;;;;;;;;;5089976;28;2404;-42
2023/02/27 11:28:11;;;;;;;;;;;;;;;;;;5089996;28;1942;-41
2023/02/27 11:30:41;;;;;;;;;;;;;;;;;;5091118;28;1705;-41
2023/02/27 11:33:18;;;;;;;;;;;;;;;;;;5071942;28;1964;-40
2023/02/27 11:35:50;;;;;;;;;;;;;;;;;;5070414;28;1567;-39
2023/02/27 11:38:23;;;;;;;;;;;;;;;;;;5069941;28;2140;-41
2023/02/27 11:40:54;;;;;;;;;;;;;;;;;;5070522;28;1817;-41
2023/02/27 11:43:26;;;;;;;;;;;;;;;;;;5070645;28;1545;-40
2023/02/27 11:45:58;;;;;;;;;;;;;;;;;;5070565;28;2196;-40
2023/02/27 11:48:34;;;;;;;;;;;;;;;;;;5069476;28;2269;-41
2023/02/27 11:51:10;;;;;;;;;;;;;;;;;;5070354;28;1880;-41
2023/02/27 11:53:56;;;;;;;;;;;;;;;;;;5070439;28;2010;-41
2023/02/27 11:56:30;;;;;;;;;;;;;;;;;;5070591;28;2116;-40
2023/02/27 11:58:57;;;;;;;;;;;;;;;;;;5070370;28;1806;-40
2023/02/27 12:01:27;;;;;;;;;;;;;;;;;;5070362;28;1642;-40
2023/02/27 12:04:00;;;;;;;;;;;;;;;;;;5070311;28;1380;-41
2023/02/27 12:06:30;;;;;;;;;;;;;;;;;;5088496;28;2081;-41
2023/02/27 12:09:03;;;;;;;;;;;;;;;;;;5091108;28;2089;-40
2023/02/27 12:11:34;;;;;;;;;;;;;;;;;;5091600;28;1686;-45
2023/02/27 12:14:07;;;;;;;;;;;;;;;;;;5091510;28;1468;-41
2023/02/27 12:16:42;;;;;;;;;;;;;;;;;;5091186;28;1817;-40
2023/02/27 12:19:18;;;;;;;;;;;;;;;;;;5091375;28;2406;-41
2023/02/27 12:21:48;;;;;;;;;;;;;;;;;;5091273;28;1877;-40
2023/02/27 12:24:33;;;;;;;;;;;;;;;;;;5091411;28;2108;-41
2023/02/27 12:27:08;;;;;;;;;;;;;;;;;;5090835;28;1772;-42
2023/02/27 12:29:38;;;;;;;;;;;;;;;;;;5091022;28;2268;-41
2023/02/27 12:32:15;;;;;;;;;;;;;;;;;;5081047;28;2051;-43
2023/02/27 12:34:42;;;;;;;;;;;;;;;;;;5071177;28;2132;-41
2023/02/27 12:37:16;;;;;;;;;;;;;;;;;;5071023;28;1670;-41
2023/02/27 12:39:44;;;;;;;;;;;;;;;;;;5071077;28;2147;-41
2023/02/27 12:42:29;;;;;;;;;;;;;;;;;;5070981;28;1890;-41
2023/02/27 12:45:36;;;;;;;;;;;;;;;;;;5071048;28;1946;-41
2023/02/27 12:48:18;;;;;;;;;;;;;;;;;;5010873;28;1907;-41
2023/02/27 12:50:49;;;;;;;;;;;;;;;;;;5013030;28;2206;-40
2023/02/27 12:53:27;;;;;;;;;;;;;;;;;;5051378;28;2001;-41
2023/02/27 12:56:02;;;;;;;;;;;;;;;;;;5074951;28;2103;-40
2023/02/27 12:58:35;;;;;;;;;;;;;;;;;;5074868;28;1796;-41
2023/02/27 13:01:13;;;;;;;;;;;;;;;;;;5075000;28;2138;-40
2023/02/27 13:03:50;;;;;;;;;;;;;;;;;;5078047;28;1849;-41
2023/02/27 13:06:23;;;;;;;;;;;;;;;;;;5090121;28;2089;-41
2023/02/27 13:09:03;;;;;;;;;;;;;;;;;;5074283;28;1999;-42
2023/02/27 13:11:35;;;;;;;;;;;;;;;;;;5074672;28;1855;-43
2023/02/27 13:14:19;;;;;;;;;;;;;;;;;;5074458;28;1483;-41
2023/02/27 13:16:53;;;;;;;;;;;;;;;;;;5073987;28;2150;-41
2023/02/27 13:19:26;;;;;;;;;;;;;;;;;;5073391;28;2046;-40
2023/02/27 13:21:56;;;;;;;;;;;;;;;;;;5073540;28;1702;-41
2023/02/27 13:24:25;;;;;;;;;;;;;;;;;;5074479;28;1855;-40
2023/02/27 13:26:56;;;;;;;;;;;;;;;;;;5074199;28;1424;-42
2023/02/27 13:29:25;;;;;;;;;;;;;;;;;;5074254;28;1981;-40
2023/02/27 13:32:11;;;;;;;;;;;;;;;;;;5082613;28;2065;-41
2023/02/27 13:34:59;;;;;;;;;;;;;;;;;;5094265;28;1925;-40
2023/02/27 13:37:46;;;;;;;;;;;;;;;;;;5093857;28;2071;-41
2023/02/27 13:40:30;;;;;;;;;;;;;;;;;;5094551;28;1956;-41
2023/02/27 13:43:00;;;;;;;;;;;;;;;;;;5087387;28;1784;-40
2023/02/27 13:45:46;;;;;;;;;;;;;;;;;;5073989;28;1730;-41
2023/02/27 13:48:40;;;;;;;;;;;;;;;;;;5074275;28;1445;-41
2023/02/27 13:51:09;;;;;;;;;;;;;;;;;;5065626;28;1930;-40
2023/02/27 13:53:37;;;;;;;;;;;;;;;;;;5073762;28;2030;-41
2023/02/27 13:56:17;;;;;;;;;;;;;;;;;;5073645;28;1939;-40
2023/02/27 13:58:45;;;;;;;;;;;;;;;;;;5073480;28;1583;-41
2023/02/27 14:01:17;;;;;;;;;;;;;;;;;;5073116;28;2300;-41
2023/02/27 14:03:51;;;;;;;;;;;;;;;;;;5073854;28;1680;-41
2023/02/27 14:06:18;;;;;;;;;;;;;;;;;;5090028;28;1959;-41
2023/02/27 14:08:47;;;;;;;;;;;;;;;;;;5094060;28;1946;-41
2023/02/27 14:11:38;;;;;;;;;;;;;;;;;;5093822;28;2084;-41
2023/02/27 14:14:07;;;;;;;;;;;;;;;;;;5093766;28;2034;-40
2023/02/27 14:16:40;;;;;;;;;;;;;;;;;;5093731;28;1967;-39
2023/02/27 14:19:21;;;;;;;;;;;;;;;;;;5093372;28;1622;-40
2023/02/27 14:21:48;;;;;;;;;;;;;;;;;;5087618;28;1480;-40
2023/02/27 14:24:16;;;;;;;;;;;;;;;;;;5073607;28;2021;-42
2023/02/27 14:26:45;;;;;;;;;;;;;;;;;;5073504;28;2174;-41
2023/02/27 14:29:16;;;;;;;;;;;;;;;;;;5073305;28;1919;-39
2023/02/27 14:31:44;;;;;;;;;;;;;;;;;;5080552;28;2025;-40
2023/02/27 14:34:16;;;;;;;;;;;;;;;;;;5093384;28;1966;-41
2023/02/27 14:36:51;;;;;;;;;;;;;;;;;;5093597;28;1842;-41
2023/02/27 14:39:20;;;;;;;;;;;;;;;;;;5089996;28;1520;-43
2023/02/27 14:42:01;;;;;;;;;;;;;;;;;;5093208;28;2116;-41
2023/02/27 14:44:35;;;;;;;;;;;;;;;;;;5092959;28;1949;-40
2023/02/27 14:47:03;;;;;;;;;;;;;;;;;;5093230;28;1938;-40
2023/02/27 14:49:34;;;;;;;;;;;;;;;;;;5093101;28;2029;-41
2023/02/27 14:52:30;;;;;;;;;;;;;;;;;;5092854;28;2176;-42
2023/02/27 14:55:16;;;;;;;;;;;;;;;;;;5083967;28;1648;-40
2023/02/27 14:57:54;;;;;;;;;;;;;;;;;;5093191;28;2012;-41
2023/02/27 15:00:36;;;;;;;;;;;;;;;;;;5092930;28;1714;-40
2023/02/27 15:03:09;;;;;;;;;;;;;;;;;;5091381;28;2133;-40
2023/02/27 15:05:37;;;;;;;;;;;;;;;;;;5081957;28;1788;-41
2023/02/27 15:08:04;;;;;;;;;;;;;;;;;;5072428;28;1912;-41
2023/02/27 15:10:32;;;;;;;;;;;;;;;;;;5071873;28;1922;-39
2023/02/27 15:13:00;;;;;;;;;;;;;;;;;;5071672;28;1502;-41
2023/02/27 15:15:27;;;;;;;;;;;;;;;;;;5072266;28;2108;-40
2023/02/27 15:17:54;;;;;;;;;;;;;;;;;;5072182;28;1632;-41
2023/02/27 15:20:22;;;;;;;;;;;;;;;;;;5072269;28;1895;-41
2023/02/27 15:22:49;;;;;;;;;;;;;;;;;;5072332;28;1972;-41
2023/02/27 15:25:29;;;;;;;;;;;;;;;;;;5072376;28;1674;-41
2023/02/27 15:27:58;;;;;;;;;;;;;;;;;;5070672;28;1823;-41
2023/02/27 15:30:25;;;;;;;;;;;;;;;;;;5071791;28;1906;-44
2023/02/27 15:32:52;;;;;;;;;;;;;;;;;;5088747;28;1958;-41
2023/02/27 15:35:23;;;;;;;;;;;;;;;;;;5086154;28;1748;-41
2023/02/27 15:37:54;;;;;;;;;;;;;;;;;;5071785;28;1509;-40
2023/02/27 15:40:24;;;;;;;;;;;;;;;;;;5071791;28;2103;-41
2023/02/27 15:42:51;;;;;;;;;;;;;;;;;;5071815;28;1848;-41
2023/02/27 15:45:20;;;;;;;;;;;;;;;;;;5071996;28;2076;-40
2023/02/27 15:47:47;;;;;;;;;;;;;;;;;;5072086;28;2113;-41
2023/02/27 15:50:14;;;;;;;;;;;;;;;;;;5071389;28;2190;-40
2023/02/27 15:52:48;;;;;;;;;;;;;;;;;;5071514;28;1734;-48
2023/02/27 15:55:20;;;;;;;;;;;;;;;;;;5071968;28;1756;-41
2023/02/27 15:57:48;;;;;;;;;;;;;;;;;;5071913;28;1852;-41
2023/02/27 16:00:29;;;;;;;;;;;;;;;;;;5071238;28;1843;-49
2023/02/27 16:02:56;;;;;;;;;;;;;;;;;;5071434;28;1956;-41
2023/02/27 16:05:26;;;;;;;;;;;;;;;;;;5080461;28;1785;-45
2023/02/27 16:07:54;;;;;;;;;;;;;;;;;;5091350;28;1908;-47
2023/02/27 16:10:28;;;;;;;;;;;;;;;;;;5091613;28;1967;-42
2023/02/27 16:12:56;;;;;;;;;;;;;;;;;;5091311;28;1990;-42
2023/02/27 16:15:29;;;;;;;;;;;;;;;;;;5091618;28;1934;-44
2023/02/27 16:17:57;;;;;;;;;;;;;;;;;;5091415;28;2027;-42
2023/02/27 16:20:38;;;;;;;;;;;;;;;;;;5091408;28;1774;-42
2023/02/27 16:23:14;;;;;;;;;;;;;;;;;;5091399;28;2181;-41
2023/02/27 16:25:44;;;;;;;;;;;;;;;;;;5091272;28;2047;-42
2023/02/27 16:28:14;;;;;;;;;;;;;;;;;;5091129;28;2361;-42
2023/02/27 16:30:41;;;;;;;;;;;;;;;;;;5090106;28;2073;-44
2023/02/27 16:33:14;;;;;;;;;;;;;;;;;;5072322;28;2118;-43
2023/02/27 16:35:41;;;;;;;;;;;;;;;;;;5070968;28;2031;-41
2023/02/27 16:38:08;;;;;;;;;;;;;;;;;;5071263;28;1615;-41
2023/02/27 16:40:36;;;;;;;;;;;;;;;;;;5071072;28;2024;-42
2023/02/27 16:43:03;;;;;;;;;;;;;;;;;;5071136;28;1828;-42
2023/02/27 16:45:30;;;;;;;;;;;;;;;;;;5070944;28;1913;-42
2023/02/27 16:47:58;;;;;;;;;;;;;;;;;;5070954;28;2095;-47
2023/02/27 16:50:41;;;;;;;;;;;;;;;;;;5070903;28;1890;-41
2023/02/27 16:53:08;;;;;;;;;;;;;;;;;;5069699;28;2167;-41
2023/02/27 16:55:38;;;;;;;;;;;;;;;;;;5071063;28;2091;-42
2023/02/27 16:58:05;;;;;;;;;;;;;;;;;;5070952;28;2372;-42
2023/02/27 17:00:33;;;;;;;;;;;;;;;;;;5071082;28;2129;-40
2023/02/27 17:03:00;;;;;;;;;;;;;;;;;;5069885;28;2236;-41
2023/02/27 17:05:27;;;;;;;;;;;;;;;;;;5079702;28;1959;-41
2023/02/27 17:07:54;;;;;;;;;;;;;;;;;;5091108;28;1566;-42
2023/02/27 17:10:23;;;;;;;;;;;;;;;;;;5090811;28;2101;-41
2023/02/27 17:12:51;;;;;;;;;;;;;;;;;;5091166;28;1966;-40
2023/02/27 17:15:18;;;;;;;;;;;;;;;;;;5090949;28;1969;-43
2023/02/27 17:17:45;;;;;;;;;;;;;;;;;;5091117;28;2047;-41
2023/02/27 17:20:13;;;;;;;;;;;;;;;;;;5090194;28;1525;-42
2023/02/27 17:22:41;;;;;;;;;;;;;;;;;;5090882;28;2152;-41
2023/02/27 17:25:09;;;;;;;;;;;;;;;;;;5090893;28;1618;-46
2023/02/27 17:27:36;;;;;;;;;;;;;;;;;;5086582;28;2178;-41
2023/02/27 17:30:05;;;;;;;;;;;;;;;;;;5070078;28;1925;-41
2023/02/27 17:32:33;;;;;;;;;;;;;;;;;;5084438;28;1999;-41